• Join FlightAware (Why Join?)
  • Login
  • US Flag 
12:17PM EDT


 

Airport Tracker/Info


-or-


 

Live Flight TrackerFlight Track Log ✈ EGF4174 ✈ 22-Apr-2013 ✈ KSYR - KORD

Flight Track Log - Related Links

Times and Time Zones

All times are in EDT time to prevent confusion due to time zone crossing. See the EGF4174 flight status page for this flight to view local times or setup timezone preferences in your user account.

Time Position Orientation Groundspeed Altitude Reporting Facility
EDT Latitude Longitude Course Direction KTS MPH feet Rate Location/Type
05:07PM 43.1089 -76.0922 286° West 131 151 1,200  Level Boston Center
05:08PM 43.1119 -76.0611 82° East 157 181 2,000 2,040 Climbing Boston Center
05:09PM 43.1550 -76.0806 342° North 234 269 4,300 2,160 Climbing Boston Center
05:10PM 43.1920 -76.4420 324° Northwest  Level FlightAware Approximate
05:11PM 43.2087 -76.5609 281° West  Level FlightAware Approximate
05:11PM 43.1719 -76.2728 277° West 253 291 8,700  Level Cleveland Center
05:12PM 43.2309 -76.6827 286° West  Level FlightAware Approximate
05:12PM 43.1903 -76.3769 284° West 265 305 10,600  Level Cleveland Center
05:13PM 43.2567 -76.8034 286° West  Level FlightAware Approximate
05:13PM 43.2092 -76.4925 283° West 287 330 12,100  Level Cleveland Center
05:14PM 43.2258 -76.6139 281° West 317 365 14,000 1,560 Climbing Cleveland Center
05:15PM 43.2197 -76.7397 266° West 323 372 15,300 1,380 Climbing Cleveland Center
05:16PM 43.2156 -76.8711 268° West 339 390 16,800 1,320 Climbing Cleveland Center
05:17PM 43.2069 -76.9914 264° West 355 409 18,000 1,020 Climbing Cleveland Center
05:18PM 43.2006 -77.1283 266° West 355 409 18,900 1,200 Climbing Cleveland Center
05:19PM 43.1964 -77.2653 268° West 361 415 20,400 1,440 Climbing Cleveland Center
05:20PM 43.1897 -77.4025 266° West 367 422 21,800 1,440 Climbing Cleveland Center
05:21PM 43.1850 -77.5394 267° West 367 422 23,400 1,500 Climbing Cleveland Center
05:22PM 43.1781 -77.6764 266° West 367 422 24,900 1,560 Climbing Cleveland Center
05:23PM 43.1711 -77.8133 266° West 367 422 26,500 1,500 Climbing Cleveland Center
05:24PM 43.1636 -77.9419 265° West 367 422 27,900 1,320 Climbing Cleveland Center
05:25PM 43.1583 -78.0731 267° West 362 417 29,200 1,200 Climbing Cleveland Center
05:26PM 43.1506 -78.2014 265° West 351 404 30,400 1,140 Climbing Cleveland Center
05:27PM 43.1447 -78.3325 267° West 351 404 31,500 780 Climbing Cleveland Center
05:28PM 43.1392 -78.4664 267° West 351 404 32,000 240 Climbing Cleveland Center
05:29PM 43.1372 -78.5975 269° West 351 404 32,000  Level Cleveland Center
05:30PM 43.1353 -78.7256 269° West 351 404 32,000  Level Cleveland Center
05:31PM 43.1331 -78.8592 269° West 351 404 32,000  Level Cleveland Center
05:32PM 43.1167 -79.0167 262° West 360 414 32,000  Level Toronto Center
05:33PM 43.1167 -79.1500 270° West 350 403 32,000  Level Toronto Center
05:34PM 43.1167 -79.2667 270° West 350 403 32,000  Level Toronto Center
05:35PM 43.1167 -79.4000 270° West 350 403 32,000  Level Toronto Center
05:36PM 43.1167 -79.5500 270° West 360 414 32,000  Level Toronto Center
05:37PM 43.1000 -79.6833 260° West 370 426 32,000  Level Toronto Center
05:38PM 43.1000 -79.8333 270° West 380 437 32,000  Level Toronto Center
05:39PM 43.1000 -79.9833 270° West 380 437 32,000  Level Toronto Center
05:40PM 43.1000 -80.1333 270° West 390 449 32,000  Level Toronto Center
05:41PM 43.1000 -80.2667 270° West 400 460 32,000  Level Toronto Center
05:42PM 43.1000 -80.4333 270° West 400 460 32,000  Level Toronto Center
05:43PM 43.0833 -80.6000 262° West 390 449 32,000  Level Toronto Center
05:44PM 43.0833 -80.7333 270° West 390 449 32,000  Level Toronto Center
05:45PM 43.0667 -80.8833 261° West 390 449 32,000  Level Toronto Center
05:46PM 43.0667 -81.0333 270° West 390 449 32,000  Level Toronto Center
05:47PM 43.0667 -81.1667 270° West 390 449 32,000  Level Toronto Center
05:48PM 43.0667 -81.3167 270° West 390 449 32,000  Level Toronto Center
05:49PM 43.0500 -81.4500 260° West 390 449 32,000  Level Toronto Center
05:50PM 43.0500 -81.6167 270° West 390 449 32,000  Level Toronto Center
05:51PM 43.0500 -81.7833 270° West 390 449 32,000  Level Toronto Center
05:52PM 43.0333 -81.9167 260° West 400 460 32,000  Level Toronto Center
05:53PM 43.0333 -82.0667 270° West 400 460 32,000  Level Toronto Center
05:54PM 43.0333 -82.2167 270° West 390 449 32,000  Level Toronto Center
05:55PM 43.0167 -82.3667 261° West 390 449 32,000  Level Toronto Center
05:56PM 43.0167 -82.5333 270° West 390 449 32,000  Level Toronto Center
05:57PM 43.0208 -82.6647 273° West 397 457 32,000  Level Cleveland Center
05:58PM 43.0117 -82.8119 265° West 397 457 32,000 -360 Level Cleveland Center
05:59PM 43.0025 -82.9594 265° West 392 451 31,300 -900 Descending Cleveland Center
06:00PM 42.9933 -83.1067 265° West 392 451 30,300 -960 Descending Cleveland Center
06:01PM 42.9836 -83.2594 265° West 402 463 29,400 -960 Descending Cleveland Center
06:02PM 42.9717 -83.4094 264° West 402 463 28,400 -720 Descending Cleveland Center
06:03PM 42.9592 -83.5678 264° West 409 471 28,000 -240 Descending Cleveland Center
06:04PM 42.9489 -83.7206 265° West 414 476 28,000  Level Cleveland Center
06:05PM 42.9383 -83.8758 265° West 414 476 28,000  Level Cleveland Center
06:06PM 42.9256 -84.0256 263° West 414 476 28,000  Level Cleveland Center
06:07PM 42.9167 -84.1811 266° West 414 476 28,000  Level Cleveland Center
06:08PM 42.9033 -84.3419 264° West 408 470 28,000  Level Cleveland Center
06:09PM 42.8983 -84.3964 263° West 401 461 28,000  Level Chicago Center
06:10PM 42.8869 -84.5450 264° West 398 458 28,000  Level Chicago Center
06:11PM 42.8733 -84.6944 263° West 398 458 28,000  Level Chicago Center
06:12PM 42.8544 -84.8739 262° West 399 459 28,000  Level Chicago Center
06:13PM 42.8381 -85.0236 262° West 400 460 28,000  Level Chicago Center
06:14PM 42.8222 -85.1742 262° West 404 465 28,000  Level Chicago Center
06:15PM 42.8058 -85.3258 262° West 404 465 28,000 -360 Level Chicago Center
06:16PM 42.7886 -85.4811 261° West 411 473 27,300 -1,080 Descending Chicago Center
06:17PM 42.7636 -85.6303 257° West 405 466 25,800 -1,440 Descending Chicago Center
06:18PM 42.7350 -85.7836 256° West 413 475 24,300 -1,680 Descending Chicago Center
06:19PM 42.7025 -85.9661 256° West 412 474 22,400 -1,680 Descending Chicago Center
06:20PM 42.6747 -86.1144 256° West 405 466 20,900 -1,200 Descending Chicago Center
06:21PM 42.6475 -86.2603 256° West 398 458 20,000 -480 Descending Chicago Center
06:22PM 42.6208 -86.4028 256° West 390 449 20,000 -240 Level Chicago Center
06:23PM 42.5925 -86.5494 255° West 398 458 19,600 -1,620 Descending Chicago Center
06:24PM 42.5669 -86.6903 256° West 387 445 16,700 -2,880 Descending Chicago Center
06:25PM 42.5364 -86.8206 252° West 368 423 13,700 -2,820 Descending Chicago Center
06:26PM 42.4944 -86.9689 249° West 355 409 10,900 -1,860 Descending Chicago Center
06:27PM 42.4614 -87.0856 249° West 335 386 9,900 -720 Descending Chicago Center
06:28PM 42.4364 -87.1817 251° West 275 316 9,500 -780 Descending Chicago Center
06:29PM 42.4089 -87.2722 248° West 262 302 8,400 -1,080 Descending Chicago Center
06:30PM 42.3842 -87.3669 251° West 266 306 7,300 -780 Descending Chicago Center
06:31PM 42.3567 -87.4675 250° West 262 302 6,900 -180 Descending Chicago Center
06:32PM 42.3175 -87.5417 234° Southwest 260 299 7,000  Climbing Chicago Center
06:33PM 42.2550 -87.6097 219° Southwest 239 275 6,900 -360 Descending Chicago Center
06:34PM 42.2097 -87.6617 220° Southwest 219 252 6,300 -960 Descending Chicago Center
06:35PM 42.1636 -87.7133 220° Southwest 218 251 5,000 -1,320 Descending Chicago Center
06:36PM 42.1167 -87.7667 220° Southwest 216 249 3,800 -1,440 Descending Chicago TRACON